Truckee, CA

4:19 PM PST on February 22, 2017 (GMT -0800)
Truckee-Tahoe | | Change Station
Active Advisory: Hydrologic Statement

Elev 5899 ft 39.32 °N, 120.14 °W | Updated 4 hours ago

Mostly Cloudy
Mostly Cloudy
28 °F
Feels Like 19 °F
N
10
Wind Variable Wind from West

Today
High -- | Low -- °F
--% Chance of Precip.
Yesterday
High -- | Low -- °F
Precip. -- in
Pressure 30.06 in
Visibility 10.0 miles
Clouds Scattered Clouds 11000 ft
Windchill 19 °F
Dew Point 12 °F
Humidity 51%
Rainfall 0.09 in
Snow Depth Not available.
6:42 AM 5:45 PM
Waning Crescent, 14% visible
METAR KTRK 221945Z 27009KT 10SM SCT110 M02/M11 A3006 RMK NOSPECI
Pressure 30.06 in
Visibility 10.0 miles
Clouds Scattered Clouds 11000 ft
Windchill 19 °F
Dew Point 12 °F
Humidity 51%
Rainfall 0.09 in
Snow Depth Not available.
6:42 AM 5:45 PM
Waning Crescent, 14% visible
METAR KTRK 221945Z 27009KT 10SM SCT110 M02/M11 A3006 RMK NOSPECI

Get Your Daily Forecast Email!

Thanks for signing up!

Be on the lookout for a verification email in your inbox.

You'll start receiving the daily forecast at 8 AM.

×

10-Day Weather Forecast

Almanac

Astronomy

Feb. 22, 2017 Rise Set
Actual Time
Civil Twilight
Nautical Twilight
Astronomical Twilight
Moon
Length of Visible Light
Length of Day
Tomorrow will be .
, % of the Moon is Illuminated

Today's Extremes

State Highs State Lows

Community

WunderPhotos

Upload Photos

1,962,540 photos uploaded!

WunderBlog® & News

Nearby

Air Quality

  Air Quality AQ Index Pollutant
Not available.

Snow Depth

Station Depth Elevation

Earthquake Activity

City Distance Mag. Time & Date
Minimum magnitude displayed is 2.5.

Coastal Water Temperatures

Place Temperature

Stations

Nearby Weather Stations

Station Location Temp. Windchill Dew Point Humidity Wind Precip. Elev Updated Type
                   

Watches & Warnings

Hydrologic Statement
Issued: 2:10 PM PST Feb. 22, 2017 – National Weather Service

Forecast information for
Cosumnes river at Michigan Bar.
* At 1:30 PM Wednesday the stage was 9.2 feet.
* Forecast to recede to near 8.0 ft near tomorrow noon then forecast
to fluctuate near 8.0 ft thru tomorrow afternoon.
* Flood stage 12.0 ft
* monitor stage 7.0 ft
* impact... near 8.0 feet, low lying lands along the river begin to
flood.

&&

Lat... Lon 3848 12133 3859 12103 3842 12092 3836 12124